sensor_id;sensor_type;location;lat;lon;timestamp;P1;durP1;ratioP1;P2;durP2;ratioP2
11123;SDS011;5616;42.692;23.312;2023-12-22T00:02:18;17.77;;;12.20;;
11123;SDS011;5616;42.692;23.312;2023-12-22T00:04:46;17.27;;;12.43;;
11123;SDS011;5616;42.692;23.312;2023-12-22T00:07:13;15.73;;;12.00;;
11123;SDS011;5616;42.692;23.312;2023-12-22T00:09:40;16.13;;;11.90;;
11123;SDS011;5616;42.692;23.312;2023-12-22T00:12:06;19.67;;;12.30;;
11123;SDS011;5616;42.692;23.312;2023-12-22T00:14:33;18.77;;;12.47;;
11123;SDS011;5616;42.692;23.312;2023-12-22T00:17:00;15.93;;;12.03;;
11123;SDS011;5616;42.692;23.312;2023-12-22T00:19:26;16.87;;;12.50;;
11123;SDS011;5616;42.692;23.312;2023-12-22T00:21:55;16.60;;;11.87;;
11123;SDS011;5616;42.692;23.312;2023-12-22T00:24:23;17.50;;;12.63;;
11123;SDS011;5616;42.692;23.312;2023-12-22T00:26:50;16.67;;;12.33;;
11123;SDS011;5616;42.692;23.312;2023-12-22T00:29:16;17.57;;;13.10;;
11123;SDS011;5616;42.692;23.312;2023-12-22T00:31:43;16.50;;;12.07;;
11123;SDS011;5616;42.692;23.312;2023-12-22T00:34:10;19.57;;;13.43;;
11123;SDS011;5616;42.692;23.312;2023-12-22T00:36:36;18.33;;;13.13;;
11123;SDS011;5616;42.692;23.312;2023-12-22T00:39:04;16.30;;;12.63;;
11123;SDS011;5616;42.692;23.312;2023-12-22T00:41:32;17.03;;;12.10;;
11123;SDS011;5616;42.692;23.312;2023-12-22T00:43:59;15.60;;;11.90;;
11123;SDS011;5616;42.692;23.312;2023-12-22T00:46:26;15.87;;;11.83;;
11123;SDS011;5616;42.692;23.312;2023-12-22T00:48:52;17.03;;;11.93;;
11123;SDS011;5616;42.692;23.312;2023-12-22T00:51:19;18.15;;;13.75;;
11123;SDS011;5616;42.692;23.312;2023-12-22T00:53:46;18.20;;;13.07;;
11123;SDS011;5616;42.692;23.312;2023-12-22T00:56:14;15.17;;;12.47;;
11123;SDS011;5616;42.692;23.312;2023-12-22T00:58:41;17.87;;;12.57;;
11123;SDS011;5616;42.692;23.312;2023-12-22T01:01:07;16.93;;;12.30;;
11123;SDS011;5616;42.692;23.312;2023-12-22T01:03:34;19.23;;;11.77;;
11123;SDS011;5616;42.692;23.312;2023-12-22T01:06:01;15.13;;;11.60;;
11123;SDS011;5616;42.692;23.312;2023-12-22T01:08:27;17.00;;;12.07;;
11123;SDS011;5616;42.692;23.312;2023-12-22T01:10:54;15.13;;;11.27;;
11123;SDS011;5616;42.692;23.312;2023-12-22T01:13:22;14.17;;;10.87;;
11123;SDS011;5616;42.692;23.312;2023-12-22T01:15:49;16.07;;;11.00;;
11123;SDS011;5616;42.692;23.312;2023-12-22T01:18:16;16.27;;;11.00;;
11123;SDS011;5616;42.692;23.312;2023-12-22T01:20:43;15.90;;;10.97;;
11123;SDS011;5616;42.692;23.312;2023-12-22T01:23:12;13.50;;;10.00;;
11123;SDS011;5616;42.692;23.312;2023-12-22T01:25:42;19.73;;;11.17;;
11123;SDS011;5616;42.692;23.312;2023-12-22T01:28:08;14.80;;;10.47;;
11123;SDS011;5616;42.692;23.312;2023-12-22T01:30:36;15.43;;;10.33;;
11123;SDS011;5616;42.692;23.312;2023-12-22T01:33:03;16.00;;;11.13;;
11123;SDS011;5616;42.692;23.312;2023-12-22T01:35:30;15.03;;;10.90;;
11123;SDS011;5616;42.692;23.312;2023-12-22T01:37:57;15.40;;;10.67;;
11123;SDS011;5616;42.692;23.312;2023-12-22T01:40:24;16.80;;;11.17;;
11123;SDS011;5616;42.692;23.312;2023-12-22T01:42:51;15.17;;;10.77;;
11123;SDS011;5616;42.692;23.312;2023-12-22T01:45:17;13.97;;;10.10;;
11123;SDS011;5616;42.692;23.312;2023-12-22T01:47:46;15.83;;;11.00;;
11123;SDS011;5616;42.692;23.312;2023-12-22T01:50:13;16.30;;;11.17;;
11123;SDS011;5616;42.692;23.312;2023-12-22T01:52:41;16.40;;;11.73;;
11123;SDS011;5616;42.692;23.312;2023-12-22T01:55:10;16.27;;;11.03;;
11123;SDS011;5616;42.692;23.312;2023-12-22T01:57:38;14.53;;;10.90;;
11123;SDS011;5616;42.692;23.312;2023-12-22T02:00:07;14.87;;;10.63;;
11123;SDS011;5616;42.692;23.312;2023-12-22T02:02:38;14.77;;;11.00;;
11123;SDS011;5616;42.692;23.312;2023-12-22T02:05:09;12.83;;;10.40;;
11123;SDS011;5616;42.692;23.312;2023-12-22T02:07:37;15.57;;;10.70;;
11123;SDS011;5616;42.692;23.312;2023-12-22T02:10:05;14.27;;;10.73;;
11123;SDS011;5616;42.692;23.312;2023-12-22T02:12:33;13.93;;;9.93;;
11123;SDS011;5616;42.692;23.312;2023-12-22T02:15:00;12.97;;;9.80;;
11123;SDS011;5616;42.692;23.312;2023-12-22T02:17:29;16.17;;;10.17;;
11123;SDS011;5616;42.692;23.312;2023-12-22T02:20:02;14.13;;;10.27;;
11123;SDS011;5616;42.692;23.312;2023-12-22T02:22:31;12.60;;;9.87;;
11123;SDS011;5616;42.692;23.312;2023-12-22T02:24:58;11.70;;;9.60;;
11123;SDS011;5616;42.692;23.312;2023-12-22T02:27:27;14.77;;;10.33;;
11123;SDS011;5616;42.692;23.312;2023-12-22T02:30:02;14.53;;;10.57;;
11123;SDS011;5616;42.692;23.312;2023-12-22T02:32:32;13.93;;;10.50;;
11123;SDS011;5616;42.692;23.312;2023-12-22T02:35:03;17.17;;;11.83;;
11123;SDS011;5616;42.692;23.312;2023-12-22T02:37:35;22.37;;;13.43;;
11123;SDS011;5616;42.692;23.312;2023-12-22T02:40:03;19.17;;;13.30;;
11123;SDS011;5616;42.692;23.312;2023-12-22T02:42:31;18.07;;;12.87;;
11123;SDS011;5616;42.692;23.312;2023-12-22T02:44:59;20.50;;;13.43;;
11123;SDS011;5616;42.692;23.312;2023-12-22T02:47:26;17.43;;;11.70;;
11123;SDS011;5616;42.692;23.312;2023-12-22T02:49:54;17.50;;;12.27;;
11123;SDS011;5616;42.692;23.312;2023-12-22T02:52:20;17.83;;;13.85;;
11123;SDS011;5616;42.692;23.312;2023-12-22T02:54:48;18.13;;;12.47;;
11123;SDS011;5616;42.692;23.312;2023-12-22T02:57:15;19.07;;;12.67;;
11123;SDS011;5616;42.692;23.312;2023-12-22T02:59:42;16.70;;;11.80;;
11123;SDS011;5616;42.692;23.312;2023-12-22T03:02:09;18.03;;;12.60;;
11123;SDS011;5616;42.692;23.312;2023-12-22T03:04:35;19.73;;;12.90;;
11123;SDS011;5616;42.692;23.312;2023-12-22T03:07:02;18.20;;;13.10;;
11123;SDS011;5616;42.692;23.312;2023-12-22T03:09:29;20.27;;;12.80;;
11123;SDS011;5616;42.692;23.312;2023-12-22T03:11:58;20.40;;;13.70;;
11123;SDS011;5616;42.692;23.312;2023-12-22T03:14:27;19.93;;;13.83;;
11123;SDS011;5616;42.692;23.312;2023-12-22T03:16:54;17.20;;;13.50;;
11123;SDS011;5616;42.692;23.312;2023-12-22T03:19:21;21.40;;;14.33;;
11123;SDS011;5616;42.692;23.312;2023-12-22T03:21:48;22.30;;;14.13;;
11123;SDS011;5616;42.692;23.312;2023-12-22T03:24:15;20.03;;;14.50;;
11123;SDS011;5616;42.692;23.312;2023-12-22T03:26:43;17.97;;;12.80;;
11123;SDS011;5616;42.692;23.312;2023-12-22T03:29:12;15.27;;;12.30;;
11123;SDS011;5616;42.692;23.312;2023-12-22T03:31:38;18.97;;;12.93;;
11123;SDS011;5616;42.692;23.312;2023-12-22T03:34:05;18.23;;;11.93;;
11123;SDS011;5616;42.692;23.312;2023-12-22T03:36:32;19.23;;;13.07;;
11123;SDS011;5616;42.692;23.312;2023-12-22T03:38:58;17.47;;;12.47;;
11123;SDS011;5616;42.692;23.312;2023-12-22T03:41:25;16.47;;;12.90;;
11123;SDS011;5616;42.692;23.312;2023-12-22T03:43:54;15.73;;;11.57;;
11123;SDS011;5616;42.692;23.312;2023-12-22T03:46:22;16.63;;;11.57;;
11123;SDS011;5616;42.692;23.312;2023-12-22T03:48:49;18.07;;;12.37;;
11123;SDS011;5616;42.692;23.312;2023-12-22T03:51:16;15.13;;;11.27;;
11123;SDS011;5616;42.692;23.312;2023-12-22T03:53:43;16.40;;;11.67;;
11123;SDS011;5616;42.692;23.312;2023-12-22T03:56:10;14.10;;;10.67;;
11123;SDS011;5616;42.692;23.312;2023-12-22T03:58:37;15.13;;;10.57;;
11123;SDS011;5616;42.692;23.312;2023-12-22T04:01:04;19.23;;;11.70;;
11123;SDS011;5616;42.692;23.312;2023-12-22T04:03:34;16.10;;;11.10;;
11123;SDS011;5616;42.692;23.312;2023-12-22T04:06:01;15.90;;;11.50;;
11123;SDS011;5616;42.692;23.312;2023-12-22T04:08:28;14.23;;;11.10;;
11123;SDS011;5616;42.692;23.312;2023-12-22T04:10:55;18.63;;;11.67;;
11123;SDS011;5616;42.692;23.312;2023-12-22T04:13:21;16.63;;;11.50;;
11123;SDS011;5616;42.692;23.312;2023-12-22T04:15:48;18.83;;;11.17;;
11123;SDS011;5616;42.692;23.312;2023-12-22T04:18:15;15.03;;;11.03;;
11123;SDS011;5616;42.692;23.312;2023-12-22T04:20:43;13.37;;;10.37;;
11123;SDS011;5616;42.692;23.312;2023-12-22T04:23:10;13.57;;;10.77;;
11123;SDS011;5616;42.692;23.312;2023-12-22T04:25:36;15.68;;;11.57;;
11123;SDS011;5616;42.692;23.312;2023-12-22T04:28:03;17.57;;;11.00;;
11123;SDS011;5616;42.692;23.312;2023-12-22T04:30:30;14.37;;;10.53;;
11123;SDS011;5616;42.692;23.312;2023-12-22T04:32:57;18.60;;;10.83;;
11123;SDS011;5616;42.692;23.312;2023-12-22T04:35:23;13.37;;;10.63;;
11123;SDS011;5616;42.692;23.312;2023-12-22T04:37:51;14.40;;;9.93;;
11123;SDS011;5616;42.692;23.312;2023-12-22T04:40:18;13.90;;;9.83;;
11123;SDS011;5616;42.692;23.312;2023-12-22T04:42:45;13.30;;;9.73;;
11123;SDS011;5616;42.692;23.312;2023-12-22T04:45:11;11.87;;;9.70;;
11123;SDS011;5616;42.692;23.312;2023-12-22T04:47:38;12.73;;;9.97;;
11123;SDS011;5616;42.692;23.312;2023-12-22T04:50:05;13.77;;;9.87;;
11123;SDS011;5616;42.692;23.312;2023-12-22T04:52:32;14.90;;;10.63;;
11123;SDS011;5616;42.692;23.312;2023-12-22T04:55:00;14.70;;;10.17;;
11123;SDS011;5616;42.692;23.312;2023-12-22T04:57:27;14.87;;;9.80;;
11123;SDS011;5616;42.692;23.312;2023-12-22T04:59:54;14.67;;;10.70;;
11123;SDS011;5616;42.692;23.312;2023-12-22T05:02:20;13.87;;;10.10;;
11123;SDS011;5616;42.692;23.312;2023-12-22T05:04:47;13.47;;;9.80;;
11123;SDS011;5616;42.692;23.312;2023-12-22T05:07:14;15.80;;;10.33;;
11123;SDS011;5616;42.692;23.312;2023-12-22T05:09:41;14.17;;;10.70;;
11123;SDS011;5616;42.692;23.312;2023-12-22T05:12:09;13.13;;;9.53;;
11123;SDS011;5616;42.692;23.312;2023-12-22T05:14:36;12.00;;;9.67;;
11123;SDS011;5616;42.692;23.312;2023-12-22T05:17:03;13.13;;;9.57;;
11123;SDS011;5616;42.692;23.312;2023-12-22T05:19:30;14.83;;;11.13;;
11123;SDS011;5616;42.692;23.312;2023-12-22T05:21:56;15.07;;;9.97;;
11123;SDS011;5616;42.692;23.312;2023-12-22T05:24:23;14.35;;;11.68;;
11123;SDS011;5616;42.692;23.312;2023-12-22T05:26:50;13.60;;;10.60;;
11123;SDS011;5616;42.692;23.312;2023-12-22T05:29:19;17.80;;;11.80;;
11123;SDS011;5616;42.692;23.312;2023-12-22T05:31:46;12.23;;;10.40;;
11123;SDS011;5616;42.692;23.312;2023-12-22T05:34:13;13.77;;;10.40;;
11123;SDS011;5616;42.692;23.312;2023-12-22T05:36:39;15.27;;;11.17;;
11123;SDS011;5616;42.692;23.312;2023-12-22T05:39:06;15.23;;;10.83;;
11123;SDS011;5616;42.692;23.312;2023-12-22T05:41:34;15.33;;;10.87;;
11123;SDS011;5616;42.692;23.312;2023-12-22T05:44:03;15.03;;;10.90;;
11123;SDS011;5616;42.692;23.312;2023-12-22T05:46:34;14.53;;;10.40;;
11123;SDS011;5616;42.692;23.312;2023-12-22T05:49:02;13.00;;;10.10;;
11123;SDS011;5616;42.692;23.312;2023-12-22T05:51:29;14.33;;;10.63;;
11123;SDS011;5616;42.692;23.312;2023-12-22T05:53:55;15.33;;;10.50;;
11123;SDS011;5616;42.692;23.312;2023-12-22T05:56:22;15.77;;;10.43;;
11123;SDS011;5616;42.692;23.312;2023-12-22T05:58:49;16.10;;;11.10;;
11123;SDS011;5616;42.692;23.312;2023-12-22T06:01:16;15.40;;;10.17;;
11123;SDS011;5616;42.692;23.312;2023-12-22T06:03:45;13.47;;;10.20;;
11123;SDS011;5616;42.692;23.312;2023-12-22T06:06:12;12.83;;;10.10;;
11123;SDS011;5616;42.692;23.312;2023-12-22T06:08:39;13.90;;;10.63;;
11123;SDS011;5616;42.692;23.312;2023-12-22T06:11:06;14.03;;;10.17;;
11123;SDS011;5616;42.692;23.312;2023-12-22T06:13:33;15.30;;;9.90;;
11123;SDS011;5616;42.692;23.312;2023-12-22T06:15:59;13.90;;;10.47;;
11123;SDS011;5616;42.692;23.312;2023-12-22T06:18:26;12.33;;;9.20;;
11123;SDS011;5616;42.692;23.312;2023-12-22T06:20:54;15.67;;;10.40;;
11123;SDS011;5616;42.692;23.312;2023-12-22T06:23:21;17.03;;;10.90;;
11123;SDS011;5616;42.692;23.312;2023-12-22T06:25:48;14.13;;;10.97;;
11123;SDS011;5616;42.692;23.312;2023-12-22T06:28:14;15.00;;;10.97;;
11123;SDS011;5616;42.692;23.312;2023-12-22T06:30:43;15.67;;;11.37;;
11123;SDS011;5616;42.692;23.312;2023-12-22T06:33:12;15.50;;;11.07;;
11123;SDS011;5616;42.692;23.312;2023-12-22T06:35:39;14.53;;;11.07;;
11123;SDS011;5616;42.692;23.312;2023-12-22T06:38:08;16.07;;;11.00;;
11123;SDS011;5616;42.692;23.312;2023-12-22T06:40:36;15.00;;;10.80;;
11123;SDS011;5616;42.692;23.312;2023-12-22T06:43:03;17.50;;;11.40;;
11123;SDS011;5616;42.692;23.312;2023-12-22T06:45:30;14.13;;;11.50;;
11123;SDS011;5616;42.692;23.312;2023-12-22T06:47:57;14.70;;;11.80;;
11123;SDS011;5616;42.692;23.312;2023-12-22T06:50:24;15.23;;;11.83;;
11123;SDS011;5616;42.692;23.312;2023-12-22T06:52:50;13.13;;;10.77;;
11123;SDS011;5616;42.692;23.312;2023-12-22T06:55:18;13.17;;;10.57;;
11123;SDS011;5616;42.692;23.312;2023-12-22T06:57:45;15.00;;;11.30;;
11123;SDS011;5616;42.692;23.312;2023-12-22T07:00:12;12.77;;;10.03;;
11123;SDS011;5616;42.692;23.312;2023-12-22T07:02:40;12.83;;;9.80;;
11123;SDS011;5616;42.692;23.312;2023-12-22T07:07:56;14.93;;;10.20;;
11123;SDS011;5616;42.692;23.312;2023-12-22T07:10:24;16.70;;;11.00;;
11123;SDS011;5616;42.692;23.312;2023-12-22T07:12:50;14.73;;;10.57;;
11123;SDS011;5616;42.692;23.312;2023-12-22T07:15:17;13.67;;;10.37;;
11123;SDS011;5616;42.692;23.312;2023-12-22T07:17:44;14.77;;;11.47;;
11123;SDS011;5616;42.692;23.312;2023-12-22T07:20:11;14.73;;;11.30;;
11123;SDS011;5616;42.692;23.312;2023-12-22T07:22:37;17.97;;;11.43;;
11123;SDS011;5616;42.692;23.312;2023-12-22T07:25:04;14.43;;;10.80;;
11123;SDS011;5616;42.692;23.312;2023-12-22T07:27:34;16.00;;;11.47;;
11123;SDS011;5616;42.692;23.312;2023-12-22T07:30:01;13.17;;;11.27;;
11123;SDS011;5616;42.692;23.312;2023-12-22T07:32:28;16.97;;;11.33;;
11123;SDS011;5616;42.692;23.312;2023-12-22T07:34:55;14.00;;;10.93;;
11123;SDS011;5616;42.692;23.312;2023-12-22T07:37:22;15.40;;;11.30;;
11123;SDS011;5616;42.692;23.312;2023-12-22T07:39:48;14.83;;;11.57;;
11123;SDS011;5616;42.692;23.312;2023-12-22T07:42:15;14.40;;;10.90;;
11123;SDS011;5616;42.692;23.312;2023-12-22T07:44:43;12.93;;;10.43;;
11123;SDS011;5616;42.692;23.312;2023-12-22T07:47:10;17.00;;;10.73;;
11123;SDS011;5616;42.692;23.312;2023-12-22T07:49:37;13.13;;;10.93;;
11123;SDS011;5616;42.692;23.312;2023-12-22T07:52:04;13.80;;;11.50;;
11123;SDS011;5616;42.692;23.312;2023-12-22T07:54:31;15.63;;;11.73;;
11123;SDS011;5616;42.692;23.312;2023-12-22T07:56:58;14.97;;;11.70;;
11123;SDS011;5616;42.692;23.312;2023-12-22T07:59:25;17.57;;;11.63;;
11123;SDS011;5616;42.692;23.312;2023-12-22T08:01:54;14.70;;;10.77;;
11123;SDS011;5616;42.692;23.312;2023-12-22T08:04:20;13.03;;;10.80;;
11123;SDS011;5616;42.692;23.312;2023-12-22T08:06:47;19.77;;;12.33;;
11123;SDS011;5616;42.692;23.312;2023-12-22T08:09:14;15.67;;;10.57;;
11123;SDS011;5616;42.692;23.312;2023-12-22T08:11:40;15.93;;;11.80;;
11123;SDS011;5616;42.692;23.312;2023-12-22T08:14:07;18.87;;;12.70;;
11123;SDS011;5616;42.692;23.312;2023-12-22T08:16:34;14.50;;;11.37;;
11123;SDS011;5616;42.692;23.312;2023-12-22T08:19:02;16.43;;;12.13;;
11123;SDS011;5616;42.692;23.312;2023-12-22T08:21:29;16.30;;;12.67;;
11123;SDS011;5616;42.692;23.312;2023-12-22T08:23:55;17.23;;;12.73;;
11123;SDS011;5616;42.692;23.312;2023-12-22T08:26:22;16.47;;;12.80;;
11123;SDS011;5616;42.692;23.312;2023-12-22T08:28:49;18.07;;;12.23;;
11123;SDS011;5616;42.692;23.312;2023-12-22T08:31:15;16.47;;;12.00;;
11123;SDS011;5616;42.692;23.312;2023-12-22T08:33:42;16.87;;;12.37;;
11123;SDS011;5616;42.692;23.312;2023-12-22T08:36:11;13.97;;;11.60;;
11123;SDS011;5616;42.692;23.312;2023-12-22T08:38:38;15.80;;;12.10;;
11123;SDS011;5616;42.692;23.312;2023-12-22T08:41:06;15.73;;;11.97;;
11123;SDS011;5616;42.692;23.312;2023-12-22T08:43:33;16.85;;;13.05;;
11123;SDS011;5616;42.692;23.312;2023-12-22T08:46:00;15.30;;;12.43;;
11123;SDS011;5616;42.692;23.312;2023-12-22T08:48:27;15.97;;;12.13;;
11123;SDS011;5616;42.692;23.312;2023-12-22T08:50:54;16.43;;;11.63;;
11123;SDS011;5616;42.692;23.312;2023-12-22T08:53:22;16.47;;;12.53;;
11123;SDS011;5616;42.692;23.312;2023-12-22T08:55:49;17.27;;;12.23;;
11123;SDS011;5616;42.692;23.312;2023-12-22T08:58:15;15.97;;;12.90;;
11123;SDS011;5616;42.692;23.312;2023-12-22T09:00:42;15.63;;;12.67;;
11123;SDS011;5616;42.692;23.312;2023-12-22T09:03:09;16.37;;;12.70;;
11123;SDS011;5616;42.692;23.312;2023-12-22T09:05:36;15.27;;;11.93;;
11123;SDS011;5616;42.692;23.312;2023-12-22T09:08:03;18.52;;;13.43;;
11123;SDS011;5616;42.692;23.312;2023-12-22T09:10:32;16.67;;;11.97;;
11123;SDS011;5616;42.692;23.312;2023-12-22T09:12:59;15.37;;;11.10;;
11123;SDS011;5616;42.692;23.312;2023-12-22T09:15:25;16.83;;;10.70;;
11123;SDS011;5616;42.692;23.312;2023-12-22T09:17:52;15.13;;;10.87;;
11123;SDS011;5616;42.692;23.312;2023-12-22T09:20:21;14.40;;;9.07;;
11123;SDS011;5616;42.692;23.312;2023-12-22T09:22:47;12.43;;;9.63;;
11123;SDS011;5616;42.692;23.312;2023-12-22T09:25:14;14.77;;;9.30;;
11123;SDS011;5616;42.692;23.312;2023-12-22T09:27:43;13.77;;;9.20;;
11123;SDS011;5616;42.692;23.312;2023-12-22T09:30:10;14.80;;;9.70;;
11123;SDS011;5616;42.692;23.312;2023-12-22T09:32:37;11.57;;;7.83;;
11123;SDS011;5616;42.692;23.312;2023-12-22T09:35:04;10.60;;;7.37;;
11123;SDS011;5616;42.692;23.312;2023-12-22T09:37:31;11.23;;;8.20;;
11123;SDS011;5616;42.692;23.312;2023-12-22T09:39:58;12.90;;;8.43;;
11123;SDS011;5616;42.692;23.312;2023-12-22T09:42:25;13.30;;;8.53;;
11123;SDS011;5616;42.692;23.312;2023-12-22T09:44:53;15.90;;;11.40;;
11123;SDS011;5616;42.692;23.312;2023-12-22T09:47:25;17.27;;;11.77;;
11123;SDS011;5616;42.692;23.312;2023-12-22T09:49:54;17.57;;;13.00;;
11123;SDS011;5616;42.692;23.312;2023-12-22T09:52:22;19.03;;;13.13;;
11123;SDS011;5616;42.692;23.312;2023-12-22T09:54:49;16.47;;;13.00;;
11123;SDS011;5616;42.692;23.312;2023-12-22T09:57:16;18.52;;;13.65;;
11123;SDS011;5616;42.692;23.312;2023-12-22T09:59:43;17.40;;;12.37;;
11123;SDS011;5616;42.692;23.312;2023-12-22T10:02:11;19.67;;;13.13;;
11123;SDS011;5616;42.692;23.312;2023-12-22T10:04:38;17.70;;;12.73;;
11123;SDS011;5616;42.692;23.312;2023-12-22T10:07:05;18.53;;;13.13;;
11123;SDS011;5616;42.692;23.312;2023-12-22T10:09:33;21.50;;;13.37;;
11123;SDS011;5616;42.692;23.312;2023-12-22T10:12:01;18.50;;;13.20;;
11123;SDS011;5616;42.692;23.312;2023-12-22T10:14:30;19.70;;;13.30;;
11123;SDS011;5616;42.692;23.312;2023-12-22T10:17:01;17.10;;;12.10;;
11123;SDS011;5616;42.692;23.312;2023-12-22T10:19:29;15.57;;;11.77;;
11123;SDS011;5616;42.692;23.312;2023-12-22T10:21:55;16.13;;;11.33;;
11123;SDS011;5616;42.692;23.312;2023-12-22T10:24:38;15.70;;;10.50;;
11123;SDS011;5616;42.692;23.312;2023-12-22T10:27:07;13.37;;;9.97;;
11123;SDS011;5616;42.692;23.312;2023-12-22T10:29:34;13.83;;;9.87;;
11123;SDS011;5616;42.692;23.312;2023-12-22T10:32:01;12.70;;;9.90;;
11123;SDS011;5616;42.692;23.312;2023-12-22T10:34:31;10.90;;;8.60;;
11123;SDS011;5616;42.692;23.312;2023-12-22T10:36:58;12.23;;;7.57;;
11123;SDS011;5616;42.692;23.312;2023-12-22T10:39:26;8.47;;;6.30;;
11123;SDS011;5616;42.692;23.312;2023-12-22T10:41:53;6.93;;;5.00;;
11123;SDS011;5616;42.692;23.312;2023-12-22T10:44:20;7.80;;;4.83;;
11123;SDS011;5616;42.692;23.312;2023-12-22T10:46:50;7.07;;;4.70;;
11123;SDS011;5616;42.692;23.312;2023-12-22T10:49:17;6.67;;;4.77;;
11123;SDS011;5616;42.692;23.312;2023-12-22T10:51:45;5.90;;;4.30;;
11123;SDS011;5616;42.692;23.312;2023-12-22T10:54:12;7.37;;;4.83;;
11123;SDS011;5616;42.692;23.312;2023-12-22T10:56:38;6.00;;;4.83;;
11123;SDS011;5616;42.692;23.312;2023-12-22T10:59:05;6.13;;;4.80;;
11123;SDS011;5616;42.692;23.312;2023-12-22T11:01:33;6.47;;;5.00;;
11123;SDS011;5616;42.692;23.312;2023-12-22T11:04:05;6.67;;;4.90;;
11123;SDS011;5616;42.692;23.312;2023-12-22T11:06:34;6.97;;;5.00;;
11123;SDS011;5616;42.692;23.312;2023-12-22T11:09:06;8.63;;;4.80;;
11123;SDS011;5616;42.692;23.312;2023-12-22T11:11:34;6.17;;;4.70;;
11123;SDS011;5616;42.692;23.312;2023-12-22T11:14:02;7.10;;;5.10;;
11123;SDS011;5616;42.692;23.312;2023-12-22T11:16:31;7.00;;;5.27;;
11123;SDS011;5616;42.692;23.312;2023-12-22T11:18:59;8.87;;;6.80;;
11123;SDS011;5616;42.692;23.312;2023-12-22T11:21:27;9.80;;;6.23;;
11123;SDS011;5616;42.692;23.312;2023-12-22T11:23:55;10.37;;;6.87;;
11123;SDS011;5616;42.692;23.312;2023-12-22T11:26:25;9.20;;;5.93;;
11123;SDS011;5616;42.692;23.312;2023-12-22T11:28:52;7.73;;;5.83;;
11123;SDS011;5616;42.692;23.312;2023-12-22T11:31:19;7.90;;;5.37;;
11123;SDS011;5616;42.692;23.312;2023-12-22T11:33:46;7.40;;;5.67;;
11123;SDS011;5616;42.692;23.312;2023-12-22T11:36:14;6.60;;;4.57;;
11123;SDS011;5616;42.692;23.312;2023-12-22T11:38:42;3.03;;;2.50;;
11123;SDS011;5616;42.692;23.312;2023-12-22T11:41:12;3.07;;;1.80;;
11123;SDS011;5616;42.692;23.312;2023-12-22T11:43:45;2.17;;;1.83;;
11123;SDS011;5616;42.692;23.312;2023-12-22T11:46:15;2.30;;;1.90;;
11123;SDS011;5616;42.692;23.312;2023-12-22T11:48:46;3.30;;;1.93;;
11123;SDS011;5616;42.692;23.312;2023-12-22T11:51:14;1.90;;;1.70;;
11123;SDS011;5616;42.692;23.312;2023-12-22T11:53:41;5.27;;;1.70;;
11123;SDS011;5616;42.692;23.312;2023-12-22T11:56:09;2.40;;;1.47;;
11123;SDS011;5616;42.692;23.312;2023-12-22T11:58:37;1.60;;;1.50;;
11123;SDS011;5616;42.692;23.312;2023-12-22T12:01:06;2.13;;;1.77;;
11123;SDS011;5616;42.692;23.312;2023-12-22T12:03:35;1.63;;;1.53;;
11123;SDS011;5616;42.692;23.312;2023-12-22T12:06:11;2.97;;;2.40;;
11123;SDS011;5616;42.692;23.312;2023-12-22T12:08:41;3.67;;;2.67;;
11123;SDS011;5616;42.692;23.312;2023-12-22T12:11:08;2.83;;;2.37;;
11123;SDS011;5616;42.692;23.312;2023-12-22T12:13:35;4.97;;;2.97;;
11123;SDS011;5616;42.692;23.312;2023-12-22T12:16:09;2.90;;;2.47;;
11123;SDS011;5616;42.692;23.312;2023-12-22T12:18:37;2.97;;;2.10;;
11123;SDS011;5616;42.692;23.312;2023-12-22T12:21:05;2.80;;;1.80;;
11123;SDS011;5616;42.692;23.312;2023-12-22T12:23:33;1.93;;;1.40;;
11123;SDS011;5616;42.692;23.312;2023-12-22T12:26:00;1.27;;;1.10;;
11123;SDS011;5616;42.692;23.312;2023-12-22T12:28:28;2.43;;;1.30;;
11123;SDS011;5616;42.692;23.312;2023-12-22T12:30:59;2.10;;;1.30;;
11123;SDS011;5616;42.692;23.312;2023-12-22T12:33:28;1.20;;;1.00;;
11123;SDS011;5616;42.692;23.312;2023-12-22T12:35:56;2.17;;;1.20;;
11123;SDS011;5616;42.692;23.312;2023-12-22T12:38:28;1.10;;;1.00;;
11123;SDS011;5616;42.692;23.312;2023-12-22T12:41:09;0.85;;;0.85;;
11123;SDS011;5616;42.692;23.312;2023-12-22T12:43:36;1.03;;;0.97;;
11123;SDS011;5616;42.692;23.312;2023-12-22T12:46:08;1.30;;;1.20;;
11123;SDS011;5616;42.692;23.312;2023-12-22T12:48:37;4.43;;;1.13;;
11123;SDS011;5616;42.692;23.312;2023-12-22T12:51:04;1.57;;;1.23;;
11123;SDS011;5616;42.692;23.312;2023-12-22T12:53:31;1.30;;;1.20;;
11123;SDS011;5616;42.692;23.312;2023-12-22T12:55:59;1.50;;;1.40;;
11123;SDS011;5616;42.692;23.312;2023-12-22T12:58:27;1.60;;;1.50;;
11123;SDS011;5616;42.692;23.312;2023-12-22T13:01:03;1.33;;;1.20;;
11123;SDS011;5616;42.692;23.312;2023-12-22T13:03:31;2.10;;;1.60;;
11123;SDS011;5616;42.692;23.312;2023-12-22T13:06:07;2.63;;;2.07;;
11123;SDS011;5616;42.692;23.312;2023-12-22T13:08:33;3.27;;;2.40;;
11123;SDS011;5616;42.692;23.312;2023-12-22T13:11:01;3.50;;;2.23;;
11123;SDS011;5616;42.692;23.312;2023-12-22T13:13:28;3.00;;;2.30;;
11123;SDS011;5616;42.692;23.312;2023-12-22T13:15:55;2.20;;;2.00;;
11123;SDS011;5616;42.692;23.312;2023-12-22T13:18:22;3.00;;;2.20;;
11123;SDS011;5616;42.692;23.312;2023-12-22T13:20:49;3.20;;;2.77;;
11123;SDS011;5616;42.692;23.312;2023-12-22T13:23:18;3.23;;;2.63;;
11123;SDS011;5616;42.692;23.312;2023-12-22T13:25:45;3.60;;;2.60;;
11123;SDS011;5616;42.692;23.312;2023-12-22T13:28:12;3.00;;;2.43;;
11123;SDS011;5616;42.692;23.312;2023-12-22T13:30:38;3.50;;;2.20;;
11123;SDS011;5616;42.692;23.312;2023-12-22T13:33:06;3.30;;;2.00;;
11123;SDS011;5616;42.692;23.312;2023-12-22T13:35:33;3.27;;;2.40;;
11123;SDS011;5616;42.692;23.312;2023-12-22T13:38:02;3.53;;;2.50;;
11123;SDS011;5616;42.692;23.312;2023-12-22T13:40:33;3.45;;;2.88;;
11123;SDS011;5616;42.692;23.312;2023-12-22T13:43:00;3.63;;;2.50;;
11123;SDS011;5616;42.692;23.312;2023-12-22T13:45:28;3.90;;;2.97;;
11123;SDS011;5616;42.692;23.312;2023-12-22T13:47:55;4.00;;;3.37;;
11123;SDS011;5616;42.692;23.312;2023-12-22T13:50:22;3.87;;;3.37;;
11123;SDS011;5616;42.692;23.312;2023-12-22T13:52:49;5.73;;;3.60;;
11123;SDS011;5616;42.692;23.312;2023-12-22T13:55:16;4.17;;;3.40;;
11123;SDS011;5616;42.692;23.312;2023-12-22T13:57:45;5.47;;;3.93;;
11123;SDS011;5616;42.692;23.312;2023-12-22T14:02:56;7.17;;;4.73;;
11123;SDS011;5616;42.692;23.312;2023-12-22T14:05:23;4.47;;;3.40;;
11123;SDS011;5616;42.692;23.312;2023-12-22T14:07:50;4.10;;;1.77;;
11123;SDS011;5616;42.692;23.312;2023-12-22T14:10:17;5.63;;;1.83;;
11123;SDS011;5616;42.692;23.312;2023-12-22T14:12:43;3.20;;;2.50;;
11123;SDS011;5616;42.692;23.312;2023-12-22T14:15:11;2.90;;;2.30;;
11123;SDS011;5616;42.692;23.312;2023-12-22T14:17:39;3.27;;;2.20;;
11123;SDS011;5616;42.692;23.312;2023-12-22T14:20:07;3.20;;;1.80;;
11123;SDS011;5616;42.692;23.312;2023-12-22T14:22:35;2.23;;;1.77;;
11123;SDS011;5616;42.692;23.312;2023-12-22T14:25:02;2.23;;;1.93;;
11123;SDS011;5616;42.692;23.312;2023-12-22T14:27:29;2.80;;;2.03;;
11123;SDS011;5616;42.692;23.312;2023-12-22T14:29:56;3.77;;;1.80;;
11123;SDS011;5616;42.692;23.312;2023-12-22T14:32:24;3.27;;;2.23;;
11123;SDS011;5616;42.692;23.312;2023-12-22T14:34:54;4.53;;;2.60;;
11123;SDS011;5616;42.692;23.312;2023-12-22T14:37:21;4.53;;;2.97;;
11123;SDS011;5616;42.692;23.312;2023-12-22T14:39:47;3.13;;;2.27;;